sensor_id;sensor_type;location;lat;lon;timestamp;P1;P2;P0
45312;PMS7003;31050;51.540;5.852;2022-12-18T00:00:19;37.7;37.29;27.59
45312;PMS7003;31050;51.540;5.852;2022-12-18T00:13:39;36.74;36.52;30.2
45312;PMS7003;31050;51.540;5.852;2022-12-18T00:26:58;35.3;34.89;26.17
45312;PMS7003;31050;51.540;5.852;2022-12-18T00:40:18;34.34;33.58;26.71
45312;PMS7003;31050;51.540;5.852;2022-12-18T00:53:38;38.66;33.04;26.5
45312;PMS7003;31050;51.540;5.852;2022-12-18T01:06:57;31.81;30.64;23.44
45312;PMS7003;31050;51.540;5.852;2022-12-18T01:20:17;32.89;32.38;24.97
45312;PMS7003;31050;51.540;5.852;2022-12-18T01:33:37;28.33;29.0;23.44
45312;PMS7003;31050;51.540;5.852;2022-12-18T01:46:56;30.73;30.09;24.75
45312;PMS7003;31050;51.540;5.852;2022-12-18T02:00:16;27.73;27.8;22.79
45312;PMS7003;31050;51.540;5.852;2022-12-18T02:13:35;27.73;28.46;23.12
45312;PMS7003;31050;51.540;5.852;2022-12-18T02:26:55;26.29;26.5;21.59
45312;PMS7003;31050;51.540;5.852;2022-12-18T02:40:15;25.69;26.61;21.81
45312;PMS7003;31050;51.540;5.852;2022-12-18T02:53:34;24.25;24.64;20.07
45312;PMS7003;31050;51.540;5.852;2022-12-18T03:06:54;24.73;24.53;20.17
45312;PMS7003;31050;51.540;5.852;2022-12-18T03:20:13;23.41;24.53;20.17
45312;PMS7003;31050;51.540;5.852;2022-12-18T03:33:33;24.97;25.95;21.81
45312;PMS7003;31050;51.540;5.852;2022-12-18T03:46:53;23.65;24.75;18.76
45312;PMS7003;31050;51.540;5.852;2022-12-18T04:00:12;23.77;24.86;19.3
45312;PMS7003;31050;51.540;5.852;2022-12-18T04:13:32;26.89;23.88;19.3
45312;PMS7003;31050;51.540;5.852;2022-12-18T04:26:52;24.25;24.53;20.07
45312;PMS7003;31050;51.540;5.852;2022-12-18T04:40:11;21.97;23.23;19.19
45312;PMS7003;31050;51.540;5.852;2022-12-18T04:53:31;24.85;25.3;20.94
45312;PMS7003;31050;51.540;5.852;2022-12-18T05:06:50;23.65;24.75;19.52
45312;PMS7003;31050;51.540;5.852;2022-12-18T05:20:10;23.53;24.1;19.96
45312;PMS7003;31050;51.540;5.852;2022-12-18T05:33:30;22.69;23.44;19.08
45312;PMS7003;31050;51.540;5.852;2022-12-18T05:46:50;25.09;25.3;21.92
45312;PMS7003;31050;51.540;5.852;2022-12-18T06:00:09;22.33;23.55;19.96
45312;PMS7003;31050;51.540;5.852;2022-12-18T06:13:29;25.57;26.5;21.7
45312;PMS7003;31050;51.540;5.852;2022-12-18T06:26:48;25.09;26.06;22.14
45312;PMS7003;31050;51.540;5.852;2022-12-18T06:40:08;24.13;24.43;19.85
45312;PMS7003;31050;51.540;5.852;2022-12-18T06:53:28;22.93;23.44;19.19
45312;PMS7003;31050;51.540;5.852;2022-12-18T07:06:47;22.57;23.23;20.5
45312;PMS7003;31050;51.540;5.852;2022-12-18T07:20:07;22.93;24.1;19.63
45312;PMS7003;31050;51.540;5.852;2022-12-18T07:33:26;22.69;23.88;19.85
45312;PMS7003;31050;51.540;5.852;2022-12-18T07:46:46;21.13;22.46;19.3
45312;PMS7003;31050;51.540;5.852;2022-12-18T08:00:06;24.13;23.34;19.74
45312;PMS7003;31050;51.540;5.852;2022-12-18T08:13:25;24.49;24.86;21.81
45312;PMS7003;31050;51.540;5.852;2022-12-18T08:26:45;31.33;23.88;19.74
45312;PMS7003;31050;51.540;5.852;2022-12-18T08:40:04;23.41;24.53;20.83
45312;PMS7003;31050;51.540;5.852;2022-12-18T08:53:24;25.09;24.86;19.19
45312;PMS7003;31050;51.540;5.852;2022-12-18T09:06:44;24.25;25.3;21.81
45312;PMS7003;31050;51.540;5.852;2022-12-18T09:20:03;22.09;23.34;19.85
45312;PMS7003;31050;51.540;5.852;2022-12-18T09:33:23;21.25;22.57;19.41
45312;PMS7003;31050;51.540;5.852;2022-12-18T09:46:43;20.53;21.92;19.63
45312;PMS7003;31050;51.540;5.852;2022-12-18T10:00:02;19.57;21.05;18.54
45312;PMS7003;31050;51.540;5.852;2022-12-18T10:13:22;19.81;21.26;18.65
45312;PMS7003;31050;51.540;5.852;2022-12-18T10:26:42;18.61;20.17;17.78
45312;PMS7003;31050;51.540;5.852;2022-12-18T10:40:01;18.01;19.63;16.9
45312;PMS7003;31050;51.540;5.852;2022-12-18T10:53:21;17.29;18.98;16.47
45312;PMS7003;31050;51.540;5.852;2022-12-18T11:06:40;17.53;19.19;16.69
45312;PMS7003;31050;51.540;5.852;2022-12-18T11:20:00;18.01;18.87;16.8
45312;PMS7003;31050;51.540;5.852;2022-12-18T11:33:20;16.93;18.65;16.36
45312;PMS7003;31050;51.540;5.852;2022-12-18T11:46:39;16.09;17.89;16.03
45312;PMS7003;31050;51.540;5.852;2022-12-18T11:59:59;16.81;18.54;16.58
45312;PMS7003;31050;51.540;5.852;2022-12-18T12:13:19;17.17;18.87;16.8
45312;PMS7003;31050;51.540;5.852;2022-12-18T12:26:38;16.69;18.43;17.12
45312;PMS7003;31050;51.540;5.852;2022-12-18T12:39:58;18.25;19.85;17.12
45312;PMS7003;31050;51.540;5.852;2022-12-18T12:53:18;16.81;18.54;16.47
45312;PMS7003;31050;51.540;5.852;2022-12-18T13:06:37;17.05;18.76;16.8
45312;PMS7003;31050;51.540;5.852;2022-12-18T13:19:57;18.13;19.74;17.34
45312;PMS7003;31050;51.540;5.852;2022-12-18T13:33:16;17.53;19.19;17.12
45312;PMS7003;31050;51.540;5.852;2022-12-18T13:46:36;17.41;19.08;17.23
45312;PMS7003;31050;51.540;5.852;2022-12-18T13:59:56;18.97;20.5;18.21
45312;PMS7003;31050;51.540;5.852;2022-12-18T14:13:15;18.49;20.07;17.45
45312;PMS7003;31050;51.540;5.852;2022-12-18T14:26:35;17.05;18.76;17.01
45312;PMS7003;31050;51.540;5.852;2022-12-18T14:39:55;18.97;20.5;18.32
45312;PMS7003;31050;51.540;5.852;2022-12-18T14:53:14;18.13;19.74;17.45
45312;PMS7003;31050;51.540;5.852;2022-12-18T15:06:34;22.09;23.34;20.39
45312;PMS7003;31050;51.540;5.852;2022-12-18T15:19:54;19.45;20.94;19.08
45312;PMS7003;31050;51.540;5.852;2022-12-18T15:33:13;20.05;21.05;18.87
45312;PMS7003;31050;51.540;5.852;2022-12-18T15:46:33;20.05;21.48;19.19
45312;PMS7003;31050;51.540;5.852;2022-12-18T15:59:52;19.69;21.16;19.08
45312;PMS7003;31050;51.540;5.852;2022-12-18T16:13:12;21.49;22.79;20.07
45312;PMS7003;31050;51.540;5.852;2022-12-18T16:26:32;21.49;22.79;20.39
45312;PMS7003;31050;51.540;5.852;2022-12-18T16:39:51;22.81;23.44;20.28
45312;PMS7003;31050;51.540;5.852;2022-12-18T16:53:11;21.97;22.14;19.74
45312;PMS7003;31050;51.540;5.852;2022-12-18T17:06:31;22.21;23.44;20.28
45312;PMS7003;31050;51.540;5.852;2022-12-18T17:19:50;21.49;22.57;19.85
45312;PMS7003;31050;51.540;5.852;2022-12-18T17:33:10;20.89;22.25;19.19
45312;PMS7003;31050;51.540;5.852;2022-12-18T17:46:29;20.29;21.7;19.85
45312;PMS7003;31050;51.540;5.852;2022-12-18T17:59:49;25.33;22.57;19.52
45312;PMS7003;31050;51.540;5.852;2022-12-18T18:13:09;21.97;23.23;19.96
45312;PMS7003;31050;51.540;5.852;2022-12-18T18:26:28;23.89;22.35;19.52
45312;PMS7003;31050;51.540;5.852;2022-12-18T18:39:48;22.45;23.66;20.5
45312;PMS7003;31050;51.540;5.852;2022-12-18T18:53:08;21.49;22.79;20.28
45312;PMS7003;31050;51.540;5.852;2022-12-18T19:06:27;23.29;23.77;19.74
45312;PMS7003;31050;51.540;5.852;2022-12-18T19:19:47;20.77;22.14;20.07
45312;PMS7003;31050;51.540;5.852;2022-12-18T19:33:07;23.77;24.1;21.16
45312;PMS7003;31050;51.540;5.852;2022-12-18T19:46:26;23.53;23.77;20.83
45312;PMS7003;31050;51.540;5.852;2022-12-18T19:59:46;22.69;23.12;20.07
45312;PMS7003;31050;51.540;5.852;2022-12-18T20:13:05;24.97;25.41;21.92
45312;PMS7003;31050;51.540;5.852;2022-12-18T20:26:25;25.57;25.95;22.46
45312;PMS7003;31050;51.540;5.852;2022-12-18T20:39:45;25.93;26.39;23.12
45312;PMS7003;31050;51.540;5.852;2022-12-18T20:53:04;27.85;27.15;23.34
45312;PMS7003;31050;51.540;5.852;2022-12-18T21:06:24;29.41;29.77;26.61
45312;PMS7003;31050;51.540;5.852;2022-12-18T21:19:43;30.25;29.0;24.97
45312;PMS7003;31050;51.540;5.852;2022-12-18T21:33:03;31.93;32.27;26.82
45312;PMS7003;31050;51.540;5.852;2022-12-18T21:46:23;32.29;32.16;27.15
45312;PMS7003;31050;51.540;5.852;2022-12-18T21:59:42;32.77;33.04;28.46
45312;PMS7003;31050;51.540;5.852;2022-12-18T22:13:02;35.66;34.45;29.44
45312;PMS7003;31050;51.540;5.852;2022-12-18T22:26:22;37.46;36.96;30.75
45312;PMS7003;31050;51.540;5.852;2022-12-18T22:39:41;37.34;37.18;30.09
45312;PMS7003;31050;51.540;5.852;2022-12-18T22:53:01;40.22;38.27;32.05
45312;PMS7003;31050;51.540;5.852;2022-12-18T23:06:20;42.86;41.1;34.34
45312;PMS7003;31050;51.540;5.852;2022-12-18T23:19:40;39.98;39.25;31.29
45312;PMS7003;31050;51.540;5.852;2022-12-18T23:33:00;42.14;40.88;33.14
45312;PMS7003;31050;51.540;5.852;2022-12-18T23:46:19;44.06;43.06;33.47
45312;PMS7003;31050;51.540;5.852;2022-12-18T23:59:39;42.38;40.77;31.62
